createdAt,value
2022-11-30T00:00:51.177Z,21.66
2022-11-30T00:03:18.076Z,21.63
2022-11-30T00:05:45.026Z,21.60
2022-11-30T00:08:11.957Z,21.54
2022-11-30T00:10:39.440Z,21.53
2022-11-30T00:13:06.308Z,21.51
2022-11-30T00:15:33.459Z,21.49
2022-11-30T00:18:00.357Z,21.49
2022-11-30T00:20:29.220Z,21.48
2022-11-30T00:22:56.981Z,21.45
2022-11-30T00:25:24.328Z,21.42
2022-11-30T00:27:51.118Z,21.41
2022-11-30T00:30:17.928Z,21.38
2022-11-30T00:32:44.777Z,21.36
2022-11-30T00:35:11.585Z,21.36
2022-11-30T00:37:38.339Z,21.36
2022-11-30T00:40:06.087Z,21.34
2022-11-30T00:42:32.891Z,21.31
2022-11-30T00:44:59.747Z,21.30
2022-11-30T00:47:26.547Z,21.29
2022-11-30T00:49:53.320Z,21.29
2022-11-30T00:52:20.117Z,21.27
2022-11-30T00:54:47.247Z,21.24
2022-11-30T00:57:14.394Z,21.22
2022-11-30T00:59:41.268Z,21.22
2022-11-30T01:02:08.864Z,21.20
2022-11-30T01:04:35.806Z,21.16
2022-11-30T01:07:02.490Z,21.15
2022-11-30T01:09:29.347Z,21.11
2022-11-30T01:11:56.136Z,21.09
2022-11-30T01:14:22.990Z,21.07
2022-11-30T01:16:54.734Z,21.06
2022-11-30T01:19:22.992Z,21.03
2022-11-30T01:21:49.898Z,21.03
2022-11-30T01:24:16.760Z,21.01
2022-11-30T01:26:43.467Z,20.98
2022-11-30T01:29:10.248Z,20.96
2022-11-30T01:31:37.300Z,20.95
2022-11-30T01:34:04.287Z,20.93
2022-11-30T01:36:31.047Z,20.92
2022-11-30T01:38:58.531Z,20.90
2022-11-30T01:41:28.159Z,20.89
2022-11-30T01:43:56.256Z,20.84
2022-11-30T01:46:28.201Z,20.85
2022-11-30T01:48:57.718Z,20.83
2022-11-30T01:51:26.129Z,20.81
2022-11-30T01:53:52.905Z,20.78
2022-11-30T01:56:19.721Z,20.78
2022-11-30T01:58:46.677Z,20.74
2022-11-30T02:01:13.595Z,20.75
2022-11-30T02:03:44.357Z,20.73
2022-11-30T02:06:11.490Z,20.72
2022-11-30T02:08:38.437Z,20.71
2022-11-30T02:11:06.555Z,20.67
2022-11-30T02:13:33.578Z,20.66
2022-11-30T02:16:00.657Z,20.65
2022-11-30T02:18:32.460Z,20.63
2022-11-30T02:20:59.531Z,20.62
2022-11-30T02:23:27.467Z,20.61
2022-11-30T02:26:05.590Z,20.58
2022-11-30T02:28:42.248Z,20.57
2022-11-30T02:31:10.810Z,20.54
2022-11-30T02:33:39.446Z,20.52
2022-11-30T02:36:06.848Z,20.49
2022-11-30T02:38:34.357Z,20.49
2022-11-30T02:41:01.062Z,20.49
2022-11-30T02:43:28.658Z,20.47
2022-11-30T02:46:01.877Z,20.45
2022-11-30T02:48:33.062Z,20.42
2022-11-30T02:51:01.606Z,20.39
2022-11-30T02:53:28.608Z,20.38
2022-11-30T02:55:55.788Z,20.37
2022-11-30T02:58:22.572Z,20.34
2022-11-30T03:00:50.368Z,20.32
2022-11-30T03:03:17.188Z,20.28
2022-11-30T03:05:44.109Z,20.26
2022-11-30T03:08:11.110Z,20.25
2022-11-30T03:10:39.456Z,20.26
2022-11-30T03:13:06.376Z,20.30
2022-11-30T03:15:40.456Z,20.25
2022-11-30T03:18:11.390Z,20.21
2022-11-30T03:20:42.790Z,20.20
2022-11-30T03:23:10.001Z,20.16
2022-11-30T03:25:36.831Z,20.14
2022-11-30T03:28:03.791Z,20.17
2022-11-30T03:30:30.695Z,20.15
2022-11-30T03:32:59.819Z,20.12
2022-11-30T03:35:26.552Z,20.09
2022-11-30T03:37:53.402Z,20.08
2022-11-30T03:40:20.154Z,20.07
2022-11-30T03:42:48.218Z,20.04
2022-11-30T03:45:15.274Z,20.02
2022-11-30T03:47:47.978Z,20.01
2022-11-30T03:50:16.768Z,19.99
2022-11-30T03:52:43.801Z,19.95
2022-11-30T03:55:10.675Z,19.95
2022-11-30T03:57:37.487Z,19.97
2022-11-30T04:00:05.281Z,19.97
2022-11-30T04:02:44.330Z,19.93
2022-11-30T04:05:12.530Z,19.92
2022-11-30T04:07:39.698Z,19.90
2022-11-30T04:10:08.673Z,19.88
2022-11-30T04:12:36.081Z,19.88
2022-11-30T04:15:03.064Z,19.85
2022-11-30T04:17:29.892Z,19.85
2022-11-30T04:19:57.526Z,19.84
2022-11-30T04:22:28.681Z,19.81
2022-11-30T04:24:55.511Z,19.83
2022-11-30T04:27:22.572Z,19.82
2022-11-30T04:29:49.321Z,19.80
2022-11-30T04:32:16.037Z,19.77
2022-11-30T04:34:43.776Z,19.75
2022-11-30T04:37:10.590Z,19.74
2022-11-30T04:39:37.285Z,19.74
2022-11-30T04:42:04.135Z,19.74
2022-11-30T04:44:32.427Z,19.73
2022-11-30T04:46:59.157Z,19.72
2022-11-30T04:49:26.386Z,19.70
2022-11-30T04:51:55.236Z,19.70
2022-11-30T04:54:21.992Z,19.68
2022-11-30T04:56:48.751Z,19.66
2022-11-30T04:59:15.540Z,19.69
2022-11-30T05:01:42.556Z,19.68
2022-11-30T05:04:12.831Z,19.68
2022-11-30T05:06:40.741Z,19.66
2022-11-30T05:09:07.482Z,19.64
2022-11-30T05:11:34.161Z,19.61
2022-11-30T05:14:05.366Z,19.62
2022-11-30T05:16:32.237Z,19.62
2022-11-30T05:18:59.310Z,19.61
2022-11-30T05:21:30.955Z,19.62
2022-11-30T05:23:57.772Z,19.67
2022-11-30T05:26:25.001Z,19.75
2022-11-30T05:28:53.726Z,19.83
2022-11-30T05:31:23.009Z,19.92
2022-11-30T05:33:52.761Z,20.00
2022-11-30T05:36:19.794Z,20.07
2022-11-30T05:38:46.916Z,20.11
2022-11-30T05:41:13.571Z,20.13
2022-11-30T05:43:40.496Z,20.19
2022-11-30T05:46:09.071Z,20.24
2022-11-30T05:48:36.346Z,20.27
2022-11-30T05:51:07.310Z,20.31
2022-11-30T05:53:34.356Z,20.34
2022-11-30T05:56:04.135Z,20.39
2022-11-30T05:58:31.546Z,20.42
2022-11-30T06:00:58.740Z,20.48
2022-11-30T06:03:25.850Z,20.52
2022-11-30T06:05:53.202Z,20.56
2022-11-30T06:08:20.380Z,20.61
2022-11-30T06:10:47.290Z,20.66
2022-11-30T06:13:14.766Z,20.69
2022-11-30T06:15:42.351Z,20.75
2022-11-30T06:18:09.901Z,20.79
2022-11-30T06:20:37.305Z,20.84
2022-11-30T06:23:05.185Z,20.88
2022-11-30T06:25:32.341Z,20.91
2022-11-30T06:27:59.155Z,20.97
2022-11-30T06:30:26.649Z,21.01
2022-11-30T06:32:53.544Z,21.06
2022-11-30T06:35:20.288Z,21.11
2022-11-30T06:37:46.989Z,21.16
2022-11-30T06:40:14.077Z,21.19
2022-11-30T06:42:41.238Z,21.24
2022-11-30T06:45:08.508Z,21.30
2022-11-30T06:47:35.559Z,21.36
2022-11-30T06:50:02.359Z,21.41
2022-11-30T06:52:30.350Z,21.45
2022-11-30T06:55:00.356Z,21.49
2022-11-30T06:57:29.160Z,21.52
2022-11-30T06:59:56.765Z,21.55
2022-11-30T07:02:25.070Z,21.60
2022-11-30T07:04:55.004Z,21.62
2022-11-30T07:07:26.010Z,21.64
2022-11-30T07:09:57.757Z,21.67
2022-11-30T07:12:40.935Z,21.70
2022-11-30T07:17:57.795Z,21.76
2022-11-30T07:20:29.722Z,21.78
2022-11-30T07:22:57.074Z,21.80
2022-11-30T07:25:35.283Z,21.81
2022-11-30T07:28:17.072Z,21.83
2022-11-30T07:30:49.326Z,21.84
2022-11-30T07:33:23.857Z,21.84
2022-11-30T07:36:18.393Z,21.86
2022-11-30T07:38:49.429Z,21.86
2022-11-30T07:41:21.561Z,21.86
2022-11-30T07:43:56.630Z,21.87
2022-11-30T07:46:33.410Z,21.86
2022-11-30T07:49:03.922Z,21.68
2022-11-30T07:51:31.562Z,21.64
2022-11-30T07:54:16.831Z,21.62
2022-11-30T07:57:03.123Z,21.64
2022-11-30T07:59:29.876Z,21.64
2022-11-30T08:01:56.738Z,21.63
2022-11-30T08:04:23.553Z,21.62
2022-11-30T08:06:56.207Z,21.62
2022-11-30T08:09:23.066Z,21.64
2022-11-30T08:11:50.296Z,21.65
2022-11-30T08:14:17.271Z,21.68
2022-11-30T08:16:44.842Z,21.71
2022-11-30T08:19:11.686Z,21.73
2022-11-30T08:21:38.471Z,21.73
2022-11-30T08:24:05.854Z,21.76
2022-11-30T08:26:33.860Z,21.78
2022-11-30T08:29:01.228Z,21.80
2022-11-30T08:31:29.485Z,21.84
2022-11-30T08:33:57.740Z,21.84
2022-11-30T08:36:25.431Z,21.84
2022-11-30T08:38:52.237Z,21.85
2022-11-30T08:41:21.595Z,21.88
2022-11-30T08:43:49.080Z,21.89
2022-11-30T08:46:49.168Z,21.91
2022-11-30T08:52:16.322Z,21.91
2022-11-30T08:54:40.037Z,21.94
2022-11-30T08:57:06.963Z,21.94
2022-11-30T08:59:33.773Z,21.91
2022-11-30T09:02:00.672Z,21.91
2022-11-30T09:04:27.651Z,21.91
2022-11-30T09:06:59.217Z,21.88
2022-11-30T09:09:26.389Z,21.87
2022-11-30T09:11:53.172Z,21.87
2022-11-30T09:14:20.091Z,21.85
2022-11-30T09:16:46.797Z,21.84
2022-11-30T09:19:13.568Z,21.83
2022-11-30T09:21:40.514Z,21.82
2022-11-30T09:24:07.490Z,21.80
2022-11-30T09:26:34.376Z,21.78
2022-11-30T09:29:01.166Z,21.76
2022-11-30T09:31:28.996Z,21.76
2022-11-30T09:33:57.333Z,21.73
2022-11-30T09:36:27.376Z,21.71
2022-11-30T09:38:54.997Z,21.69
2022-11-30T09:41:29.056Z,21.66
2022-11-30T09:44:05.196Z,21.65
2022-11-30T09:46:41.294Z,21.64
2022-11-30T09:49:17.432Z,21.61
2022-11-30T09:51:44.426Z,21.60
2022-11-30T09:54:14.363Z,21.58
2022-11-30T09:56:42.967Z,21.57
2022-11-30T09:59:19.446Z,21.59
2022-11-30T10:01:52.037Z,21.59
2022-11-30T10:04:23.576Z,21.60
2022-11-30T10:06:58.257Z,21.60
2022-11-30T10:09:25.327Z,21.62
2022-11-30T10:12:01.249Z,21.62
2022-11-30T10:14:37.693Z,21.65
2022-11-30T10:17:14.242Z,21.64
2022-11-30T10:19:50.286Z,21.66
2022-11-30T10:22:26.301Z,21.66
2022-11-30T10:25:05.937Z,21.66
2022-11-30T10:27:45.341Z,21.67
2022-11-30T10:30:14.537Z,21.67
2022-11-30T10:32:43.356Z,21.66
2022-11-30T10:35:19.237Z,21.66
2022-11-30T10:37:47.112Z,21.66
2022-11-30T10:40:17.730Z,21.66
2022-11-30T10:42:50.798Z,21.67
2022-11-30T10:45:19.255Z,21.67
2022-11-30T10:47:49.131Z,21.66
2022-11-30T10:50:17.147Z,21.66
2022-11-30T10:52:45.603Z,21.64
2022-11-30T10:55:14.129Z,21.65
2022-11-30T10:57:40.926Z,21.63
2022-11-30T11:00:13.865Z,21.63
2022-11-30T11:02:47.185Z,21.64
2022-11-30T11:05:15.290Z,21.62
2022-11-30T11:07:51.453Z,21.62
2022-11-30T11:10:19.908Z,21.60
2022-11-30T11:12:52.115Z,21.54
2022-11-30T11:15:20.686Z,21.55
2022-11-30T11:17:47.497Z,21.53
2022-11-30T11:20:23.243Z,21.53
2022-11-30T11:22:50.242Z,21.53
2022-11-30T11:25:24.873Z,21.52
2022-11-30T11:27:53.748Z,21.51
2022-11-30T11:30:30.471Z,21.50
2022-11-30T11:32:58.719Z,21.48
2022-11-30T11:35:37.576Z,21.47
2022-11-30T11:38:05.742Z,21.46
2022-11-30T11:40:32.525Z,21.45
2022-11-30T11:43:00.104Z,21.42
2022-11-30T11:45:29.632Z,21.38
2022-11-30T11:48:04.579Z,21.35
2022-11-30T11:53:42.663Z,21.28
2022-11-30T11:56:18.533Z,21.27
2022-11-30T11:58:48.651Z,21.28
2022-11-30T12:04:09.626Z,21.33
2022-11-30T12:06:37.309Z,21.35
2022-11-30T12:09:08.088Z,21.35
2022-11-30T12:11:42.166Z,21.34
2022-11-30T12:14:12.373Z,21.35
2022-11-30T12:16:42.337Z,21.37
2022-11-30T12:19:12.360Z,21.39
2022-11-30T12:21:42.406Z,21.41
2022-11-30T12:24:09.680Z,21.42
2022-11-30T12:26:42.092Z,21.44
2022-11-30T12:29:12.105Z,21.46
2022-11-30T12:31:46.097Z,21.47
2022-11-30T12:34:13.552Z,21.48
2022-11-30T12:36:50.129Z,21.49
2022-11-30T12:39:20.165Z,21.49
2022-11-30T12:41:47.512Z,21.51
2022-11-30T12:44:17.659Z,21.51
2022-11-30T12:46:47.726Z,21.52
2022-11-30T12:49:22.757Z,21.54
2022-11-30T12:51:52.729Z,21.54
2022-11-30T12:54:22.780Z,21.55
2022-11-30T12:56:54.467Z,21.55
2022-11-30T12:59:24.179Z,21.56
2022-11-30T13:01:57.941Z,21.57
2022-11-30T13:04:27.991Z,21.57
2022-11-30T13:06:58.844Z,21.57
2022-11-30T13:09:30.459Z,21.56
2022-11-30T13:12:00.349Z,21.56
2022-11-30T13:14:28.610Z,21.56
2022-11-30T13:16:58.564Z,21.55
2022-11-30T13:19:25.823Z,21.54
2022-11-30T13:21:56.040Z,21.53
2022-11-30T13:24:29.153Z,21.52
2022-11-30T13:26:59.153Z,21.50
2022-11-30T13:29:27.780Z,21.51
2022-11-30T13:31:57.870Z,21.49
2022-11-30T13:34:28.032Z,21.46
2022-11-30T13:36:58.042Z,21.43
2022-11-30T13:39:26.224Z,21.45
2022-11-30T13:42:01.733Z,21.45
2022-11-30T13:44:30.268Z,21.46
2022-11-30T13:46:57.908Z,21.45
2022-11-30T13:49:28.840Z,21.44
2022-11-30T13:52:20.585Z,21.45
2022-11-30T13:54:43.074Z,21.46
2022-11-30T13:57:13.297Z,21.47
2022-11-30T14:00:01.744Z,21.47
2022-11-30T14:02:33.134Z,21.50
2022-11-30T14:05:03.107Z,21.52
2022-11-30T14:07:33.121Z,21.53
2022-11-30T14:10:00.183Z,21.55
2022-11-30T14:12:30.179Z,21.56
2022-11-30T14:14:57.618Z,21.57
2022-11-30T14:17:26.834Z,21.57
2022-11-30T14:19:58.556Z,21.59
2022-11-30T14:22:26.754Z,21.61
2022-11-30T14:24:54.410Z,21.61
2022-11-30T14:27:23.673Z,21.62
2022-11-30T14:29:53.600Z,21.63
2022-11-30T14:32:26.122Z,21.62
2022-11-30T14:34:56.391Z,21.64
2022-11-30T14:37:26.803Z,21.64
2022-11-30T14:39:57.017Z,21.64
2022-11-30T14:42:25.910Z,21.65
2022-11-30T14:44:53.581Z,21.66
2022-11-30T14:47:21.023Z,21.65
2022-11-30T14:49:52.215Z,21.65
2022-11-30T14:52:22.310Z,21.67
2022-11-30T14:54:51.060Z,21.66
2022-11-30T14:57:21.181Z,21.65
2022-11-30T14:59:50.243Z,21.66
2022-11-30T15:02:20.992Z,21.65
2022-11-30T15:04:49.700Z,21.65
2022-11-30T15:07:17.105Z,21.62
2022-11-30T15:09:45.387Z,21.61
2022-11-30T15:12:17.144Z,21.59
2022-11-30T15:15:02.310Z,21.59
2022-11-30T15:17:29.499Z,21.59
2022-11-30T15:19:56.600Z,21.56
2022-11-30T15:22:24.231Z,21.54
2022-11-30T15:24:51.489Z,21.52
2022-11-30T15:27:22.252Z,21.49
2022-11-30T15:29:57.568Z,21.48
2022-11-30T15:32:25.238Z,21.44
2022-11-30T15:34:56.880Z,21.41
2022-11-30T15:37:27.415Z,21.39
2022-11-30T15:39:56.206Z,21.37
2022-11-30T15:42:29.239Z,21.32
2022-11-30T15:45:00.921Z,21.29
2022-11-30T15:47:31.381Z,21.24
2022-11-30T15:50:17.579Z,21.21
2022-11-30T15:52:45.491Z,21.21
2022-11-30T15:55:32.429Z,21.16
2022-11-30T15:58:01.052Z,21.17
2022-11-30T16:00:32.972Z,21.22
2022-11-30T16:03:03.149Z,21.24
2022-11-30T16:05:30.402Z,21.28
2022-11-30T16:08:00.409Z,21.29
2022-11-30T16:10:30.620Z,21.30
2022-11-30T16:12:57.667Z,21.29
2022-11-30T16:15:27.571Z,21.32
2022-11-30T16:17:57.633Z,21.33
2022-11-30T16:20:25.388Z,21.35
2022-11-30T16:22:52.934Z,21.35
2022-11-30T16:25:22.124Z,21.37
2022-11-30T16:27:49.745Z,21.38
2022-11-30T16:30:20.052Z,21.41
2022-11-30T16:32:47.399Z,21.41
2022-11-30T16:35:17.703Z,21.42
2022-11-30T16:37:45.192Z,21.44
2022-11-30T16:40:13.840Z,21.45
2022-11-30T16:42:41.667Z,21.47
2022-11-30T16:45:14.241Z,21.46
2022-11-30T16:47:45.199Z,21.47
2022-11-30T16:50:13.426Z,21.48
2022-11-30T16:55:15.203Z,21.49
2022-11-30T16:57:42.546Z,21.50
2022-11-30T17:00:12.763Z,21.50
2022-11-30T17:02:43.609Z,21.50
2022-11-30T17:05:13.188Z,21.51
2022-11-30T17:07:46.400Z,21.52
2022-11-30T17:10:14.399Z,21.52
2022-11-30T17:12:41.492Z,21.51
2022-11-30T17:15:20.818Z,21.50
2022-11-30T17:17:50.898Z,21.49
2022-11-30T17:20:19.486Z,21.48
2022-11-30T17:22:46.136Z,21.47
2022-11-30T17:25:17.135Z,21.46
2022-11-30T17:27:44.384Z,21.44
2022-11-30T17:30:11.732Z,21.41
2022-11-30T17:32:38.336Z,21.42
2022-11-30T17:35:05.065Z,21.38
2022-11-30T17:37:31.703Z,21.37
2022-11-30T17:39:59.023Z,21.40
2022-11-30T17:42:25.668Z,21.38
2022-11-30T17:44:52.307Z,21.40
2022-11-30T17:47:24.216Z,21.40
2022-11-30T17:49:51.332Z,21.39
2022-11-30T17:52:18.097Z,21.39
2022-11-30T17:54:44.844Z,21.42
2022-11-30T17:57:11.757Z,21.43
2022-11-30T17:59:38.356Z,21.44
2022-11-30T18:02:05.241Z,21.46
2022-11-30T18:04:32.633Z,21.46
2022-11-30T18:06:59.300Z,21.49
2022-11-30T18:09:31.377Z,21.49
2022-11-30T18:11:58.103Z,21.52
2022-11-30T18:14:24.842Z,21.53
2022-11-30T18:16:51.496Z,21.55
2022-11-30T18:19:18.201Z,21.60
2022-11-30T18:21:45.263Z,21.61
2022-11-30T18:24:12.570Z,21.59
2022-11-30T18:26:40.443Z,21.60
2022-11-30T18:29:10.302Z,21.61
2022-11-30T18:31:36.873Z,21.62
2022-11-30T18:34:06.711Z,21.62
2022-11-30T18:36:33.780Z,21.64
2022-11-30T18:39:00.559Z,21.65
2022-11-30T18:41:28.752Z,21.67
2022-11-30T18:43:55.561Z,21.67
2022-11-30T18:46:22.260Z,21.67
2022-11-30T18:48:50.557Z,21.65
2022-11-30T18:51:35.567Z,21.62
2022-11-30T18:54:04.008Z,21.59
2022-11-30T18:56:32.010Z,21.56
2022-11-30T18:59:02.963Z,21.52
2022-11-30T19:01:30.380Z,21.49
2022-11-30T19:03:58.473Z,21.47
2022-11-30T19:06:28.232Z,21.46
2022-11-30T19:08:54.959Z,21.40
2022-11-30T19:11:21.579Z,21.37
2022-11-30T19:13:48.270Z,21.35
2022-11-30T19:16:18.047Z,21.33
2022-11-30T19:18:47.636Z,21.31
2022-11-30T19:21:18.004Z,21.32
2022-11-30T19:23:45.262Z,21.28
2022-11-30T19:26:21.696Z,21.25
2022-11-30T19:28:48.317Z,21.24
2022-11-30T19:31:15.970Z,21.27
2022-11-30T19:33:43.924Z,21.25
2022-11-30T19:36:19.947Z,21.26
2022-11-30T19:38:46.611Z,21.19
2022-11-30T19:41:14.172Z,21.19
2022-11-30T19:43:41.271Z,21.18
2022-11-30T19:46:17.536Z,21.16
2022-11-30T19:48:44.652Z,21.13
2022-11-30T19:51:17.622Z,21.14
2022-11-30T19:53:45.306Z,21.11
2022-11-30T19:56:19.236Z,21.09
2022-11-30T19:58:46.349Z,21.08
2022-11-30T20:01:13.494Z,21.07
2022-11-30T20:03:40.545Z,21.05
2022-11-30T20:06:13.133Z,21.03
2022-11-30T20:08:40.137Z,21.01
2022-11-30T20:11:11.747Z,21.00
2022-11-30T20:13:38.462Z,20.98
2022-11-30T20:16:19.888Z,20.94
2022-11-30T20:18:51.586Z,20.91
2022-11-30T20:21:19.411Z,20.91
2022-11-30T20:23:47.319Z,20.86
2022-11-30T20:26:20.921Z,20.85
2022-11-30T20:28:48.218Z,20.84
2022-11-30T20:31:16.074Z,20.83
2022-11-30T20:33:42.918Z,20.83
2022-11-30T20:36:23.611Z,20.78
2022-11-30T20:38:50.287Z,20.78
2022-11-30T20:41:21.193Z,20.78
2022-11-30T20:43:48.306Z,20.79
2022-11-30T20:46:22.321Z,20.80
2022-11-30T20:48:49.387Z,20.82
2022-11-30T20:51:33.448Z,20.88
2022-11-30T20:54:05.799Z,20.96
2022-11-30T20:56:33.027Z,21.03
2022-11-30T20:59:03.330Z,21.07
2022-11-30T21:01:30.420Z,21.13
2022-11-30T21:03:57.334Z,21.18
2022-11-30T21:06:28.174Z,21.22
2022-11-30T21:08:54.816Z,21.27
2022-11-30T21:11:21.828Z,21.28
2022-11-30T21:13:49.594Z,21.32
2022-11-30T21:16:27.111Z,21.37
2022-11-30T21:18:54.882Z,21.41
2022-11-30T21:21:23.344Z,21.43
2022-11-30T21:23:50.325Z,21.50
2022-11-30T21:26:23.743Z,21.53
2022-11-30T21:28:53.346Z,21.57
2022-11-30T21:31:20.667Z,21.61
2022-11-30T21:33:52.673Z,21.64
2022-11-30T21:36:22.289Z,21.67
2022-11-30T21:38:52.749Z,21.71
2022-11-30T21:41:19.379Z,21.72
2022-11-30T21:43:45.970Z,21.76
2022-11-30T21:46:25.391Z,21.79
2022-11-30T21:48:52.695Z,21.80
2022-11-30T21:51:20.692Z,21.81
2022-11-30T21:53:48.273Z,21.83
2022-11-30T21:56:27.522Z,21.84
2022-11-30T21:58:54.689Z,21.85
2022-11-30T22:01:28.856Z,21.87
2022-11-30T22:03:56.469Z,21.88
2022-11-30T22:06:25.819Z,21.88
2022-11-30T22:08:52.562Z,21.88
2022-11-30T22:11:20.596Z,21.89
2022-11-30T22:13:54.051Z,21.91
2022-11-30T22:16:21.664Z,21.99
2022-11-30T22:18:48.722Z,21.95
2022-11-30T22:21:17.161Z,21.96
2022-11-30T22:23:45.086Z,21.99
2022-11-30T22:26:18.829Z,22.03
2022-11-30T22:28:47.729Z,22.06
2022-11-30T22:31:15.248Z,22.10
2022-11-30T22:33:42.949Z,22.12
2022-11-30T22:36:20.982Z,22.15
2022-11-30T22:38:48.096Z,22.19
2022-11-30T22:41:16.237Z,22.20
2022-11-30T22:43:44.142Z,22.24
2022-11-30T22:46:15.401Z,22.24
2022-11-30T22:48:42.556Z,22.27
2022-11-30T22:51:10.710Z,22.28
2022-11-30T22:53:37.518Z,22.29
2022-11-30T22:56:17.010Z,22.29
2022-11-30T22:58:44.196Z,22.30
2022-11-30T23:01:13.521Z,22.31
2022-11-30T23:03:40.820Z,22.34
2022-11-30T23:06:08.146Z,22.34
2022-11-30T23:08:35.173Z,22.36
2022-11-30T23:11:03.694Z,22.37
2022-11-30T23:13:30.742Z,22.37
2022-11-30T23:15:57.933Z,22.36
2022-11-30T23:18:34.966Z,22.36
2022-11-30T23:21:06.189Z,22.38
2022-11-30T23:23:33.204Z,22.41
2022-11-30T23:26:16.944Z,22.43
2022-11-30T23:28:44.942Z,22.44
2022-11-30T23:31:34.027Z,22.47
2022-11-30T23:34:00.078Z,22.48
2022-11-30T23:36:27.337Z,22.51
2022-11-30T23:38:56.490Z,22.53
2022-11-30T23:41:23.447Z,22.56
2022-11-30T23:43:50.526Z,22.58
2022-11-30T23:46:17.493Z,22.62
2022-11-30T23:48:44.735Z,22.65
2022-11-30T23:51:11.584Z,22.67
2022-11-30T23:53:38.385Z,22.71
2022-11-30T23:56:13.261Z,22.72
2022-11-30T23:58:39.901Z,22.73
